createdAt,value
2022-09-28T00:01:51.727Z,99239.16
2022-09-28T00:04:18.129Z,99231.97
2022-09-28T00:06:44.447Z,99248.47
2022-09-28T00:09:10.762Z,99237.66
2022-09-28T00:11:37.524Z,99247.72
2022-09-28T00:14:03.869Z,99244.84
2022-09-28T00:16:31.516Z,99233.34
2022-09-28T00:18:57.882Z,99227.59
2022-09-28T00:21:26.844Z,99237.66
2022-09-28T00:24:12.167Z,99226.84
2022-09-28T00:26:45.420Z,99231.88
2022-09-28T00:29:18.885Z,99231.88
2022-09-28T00:31:45.292Z,99241.16
2022-09-28T00:34:11.692Z,99228.94
2022-09-28T00:36:38.050Z,99236.16
2022-09-28T00:39:07.698Z,99231.78
2022-09-28T00:41:34.129Z,99235.34
2022-09-28T00:44:19.414Z,99221.72
2022-09-28T00:46:45.744Z,99220.28
2022-09-28T00:49:13.097Z,99228.13
2022-09-28T00:51:39.481Z,99221.66
2022-09-28T00:54:05.797Z,99225.97
2022-09-28T00:56:32.360Z,99220.13
2022-09-28T00:58:59.594Z,99219.41
2022-09-28T01:01:26.583Z,99221.56
2022-09-28T01:03:54.197Z,99220.13
2022-09-28T01:06:21.246Z,99224.38
2022-09-28T01:08:50.387Z,99218.66
2022-09-28T01:11:17.906Z,99220.13
2022-09-28T01:13:44.532Z,99219.41
2022-09-28T01:16:24.377Z,99224.34
2022-09-28T01:19:13.159Z,99207.09
2022-09-28T01:21:45.101Z,99202.78
2022-09-28T01:24:14.207Z,99209.97
2022-09-28T01:26:47.864Z,99201.38
2022-09-28T01:29:33.426Z,99211.44
2022-09-28T01:32:10.461Z,99200.59
2022-09-28T01:34:37.623Z,99201.34
2022-09-28T01:37:04.559Z,99207.81
2022-09-28T01:39:32.377Z,99204.22
2022-09-28T01:42:00.807Z,99199.81
2022-09-28T01:44:27.215Z,99205.63
2022-09-28T01:46:53.757Z,99204.88
2022-09-28T01:49:21.253Z,99205.63
2022-09-28T01:51:52.428Z,99202.69
2022-09-28T01:54:20.191Z,99201.97
2022-09-28T01:56:50.466Z,99194.78
2022-09-28T01:59:20.394Z,99194.03
2022-09-28T02:01:46.758Z,99191.91
2022-09-28T02:04:16.882Z,99198.31
2022-09-28T02:06:48.955Z,99192.59
2022-09-28T02:09:20.058Z,99193.25
2022-09-28T02:11:47.990Z,99189.66
2022-09-28T02:14:14.537Z,99194.69
2022-09-28T02:16:42.568Z,99192.53
2022-09-28T02:19:11.058Z,99189.63
2022-09-28T02:21:39.918Z,99186.75
2022-09-28T02:24:23.345Z,99191.03
2022-09-28T02:26:50.186Z,99191.03
2022-09-28T02:29:16.599Z,99185.25
2022-09-28T02:31:43.352Z,99180.22
2022-09-28T02:34:09.876Z,99180.97
2022-09-28T02:36:36.271Z,99188.13
2022-09-28T02:39:02.596Z,99180.91
2022-09-28T02:41:32.956Z,99178.03
2022-09-28T02:44:03.315Z,99181.56
2022-09-28T02:46:30.413Z,99178.75
2022-09-28T02:49:24.466Z,99180.91
2022-09-28T02:51:59.361Z,99178.03
2022-09-28T02:54:54.985Z,99170.91
2022-09-28T02:57:26.014Z,99163.03
2022-09-28T02:59:52.286Z,99169.50
2022-09-28T03:02:29.293Z,99165.25
2022-09-28T03:05:01.502Z,99165.25
2022-09-28T03:07:32.835Z,99161.63
2022-09-28T03:10:13.912Z,99157.31
2022-09-28T03:12:40.336Z,99156.56
2022-09-28T03:15:11.114Z,99158.03
2022-09-28T03:17:37.977Z,99153.75
2022-09-28T03:20:04.607Z,99156.66
2022-09-28T03:22:30.939Z,99145.16
2022-09-28T03:24:57.294Z,99143.75
2022-09-28T03:27:23.732Z,99135.13
2022-09-28T03:29:50.150Z,99130.13
2022-09-28T03:32:16.684Z,99142.31
2022-09-28T03:34:43.207Z,99133.66
2022-09-28T03:37:12.225Z,99134.41
2022-09-28T03:39:39.456Z,99132.25
2022-09-28T03:42:05.807Z,99134.41
2022-09-28T03:44:34.978Z,99142.28
2022-09-28T03:47:01.337Z,99137.97
2022-09-28T03:49:27.671Z,99135.78
2022-09-28T03:51:53.985Z,99136.53
2022-09-28T03:54:20.318Z,99131.44
2022-09-28T03:56:46.642Z,99130.03
2022-09-28T03:59:13.082Z,99135.03
2022-09-28T04:01:39.597Z,99135.09
2022-09-28T04:04:06.030Z,99130.78
2022-09-28T04:06:32.542Z,99127.91
2022-09-28T04:08:59.017Z,99130.03
2022-09-28T04:11:25.422Z,99129.31
2022-09-28T04:13:51.898Z,99118.53
2022-09-28T04:16:18.920Z,99120.69
2022-09-28T04:18:55.582Z,99117.81
2022-09-28T04:21:45.157Z,99111.31
2022-09-28T04:24:14.378Z,99107.00
2022-09-28T04:26:40.759Z,99114.91
2022-09-28T04:29:15.920Z,99109.84
2022-09-28T04:32:02.580Z,99113.44
2022-09-28T04:34:37.891Z,99113.41
2022-09-28T04:37:06.090Z,99117.00
2022-09-28T04:39:32.482Z,99111.25
2022-09-28T04:41:58.950Z,99109.06
2022-09-28T04:44:26.977Z,99114.09
2022-09-28T04:47:02.867Z,99114.09
2022-09-28T04:49:31.218Z,99116.22
2022-09-28T04:52:08.914Z,99109.06
2022-09-28T04:54:35.290Z,99114.75
2022-09-28T04:57:03.269Z,99107.63
2022-09-28T04:59:29.608Z,99107.72
2022-09-28T05:01:56.007Z,99118.47
2022-09-28T05:05:00.909Z,99118.53
2022-09-28T05:07:45.937Z,99125.72
2022-09-28T05:10:12.257Z,99125.03
2022-09-28T05:12:39.586Z,99128.00
2022-09-28T05:15:06.021Z,99128.00
2022-09-28T05:17:32.375Z,99136.59
2022-09-28T05:20:17.271Z,99139.41
2022-09-28T05:22:43.679Z,99137.88
2022-09-28T05:25:10.069Z,99125.56
2022-09-28T05:27:55.710Z,99124.84
2022-09-28T05:30:34.276Z,99117.63
2022-09-28T05:33:36.295Z,99114.09
2022-09-28T05:36:10.825Z,99104.78
2022-09-28T05:38:37.366Z,99106.25
2022-09-28T05:41:06.571Z,99106.31
2022-09-28T05:43:33.352Z,99117.81
2022-09-28T05:46:00.157Z,99114.97
2022-09-28T05:48:27.567Z,99119.28
2022-09-28T05:50:54.050Z,99109.25
2022-09-28T05:53:20.472Z,99104.94
2022-09-28T05:55:46.835Z,99094.84
2022-09-28T05:58:13.162Z,99103.41
2022-09-28T06:00:39.537Z,99106.31
2022-09-28T06:03:09.220Z,99099.13
2022-09-28T06:05:36.215Z,99102.06
2022-09-28T06:08:04.240Z,99087.66
2022-09-28T06:10:31.172Z,99093.59
2022-09-28T06:13:00.229Z,99093.28
2022-09-28T06:15:27.629Z,99086.19
2022-09-28T06:17:58.655Z,99080.19
2022-09-28T06:20:37.794Z,99084.28
2022-09-28T06:23:14.887Z,99085.19
2022-09-28T06:25:41.230Z,99092.75
2022-09-28T06:28:09.638Z,99085.53
2022-09-28T06:30:38.077Z,99084.25
2022-09-28T06:33:08.059Z,99087.09
2022-09-28T06:35:35.945Z,99089.59
2022-09-28T06:38:02.339Z,99086.91
2022-09-28T06:40:29.432Z,99086.25
2022-09-28T06:42:56.458Z,99085.88
2022-09-28T06:45:42.856Z,99081.03
2022-09-28T06:48:33.439Z,99083.56
2022-09-28T06:51:00.315Z,99075.06
2022-09-28T06:53:33.004Z,99075.69
2022-09-28T06:56:10.306Z,99071.72
2022-09-28T06:58:36.661Z,99076.91
2022-09-28T07:01:03.513Z,99070.22
2022-09-28T07:03:40.535Z,99073.75
2022-09-28T07:06:23.987Z,99067.56
2022-09-28T07:09:27.899Z,99076.13
2022-09-28T07:12:10.085Z,99071.38
2022-09-28T07:14:49.628Z,99071.38
2022-09-28T07:17:16.201Z,99071.06
2022-09-28T07:19:44.400Z,99071.38
2022-09-28T07:22:18.504Z,99078.25
2022-09-28T07:24:45.891Z,99076.78
2022-09-28T07:27:31.188Z,99069.94
2022-09-28T07:30:16.208Z,99071.78
2022-09-28T07:32:57.723Z,99081.06
2022-09-28T07:35:50.402Z,99076.47
2022-09-28T07:38:16.834Z,99081.59
2022-09-28T07:41:01.874Z,99086.00
2022-09-28T07:43:28.268Z,99080.38
2022-09-28T07:45:54.804Z,99084.78
2022-09-28T07:48:21.470Z,99083.50
2022-09-28T07:51:08.492Z,99085.75
2022-09-28T07:53:40.139Z,99090.88
2022-09-28T07:56:30.906Z,99078.00
2022-09-28T07:59:03.376Z,99083.84
2022-09-28T08:01:38.788Z,99082.47
2022-09-28T08:04:06.198Z,99086.81
2022-09-28T08:06:34.253Z,99086.84
2022-09-28T08:09:02.042Z,99082.56
2022-09-28T08:11:49.703Z,99086.91
2022-09-28T08:14:39.265Z,99084.75
2022-09-28T08:17:26.544Z,99086.16
2022-09-28T08:20:14.725Z,99098.06
2022-09-28T08:22:41.704Z,99091.72
2022-09-28T08:25:08.594Z,99092.44
2022-09-28T08:27:34.958Z,99100.25
2022-09-28T08:30:01.473Z,99098.88
2022-09-28T08:32:51.161Z,99094.59
2022-09-28T08:35:35.941Z,99110.44
2022-09-28T08:38:13.130Z,99104.69
2022-09-28T08:41:36.670Z,99107.13
2022-09-28T08:44:24.155Z,99110.78
2022-09-28T08:47:46.234Z,99103.09
2022-09-28T08:50:24.202Z,99108.84
2022-09-28T08:53:05.887Z,99096.53
2022-09-28T08:55:49.822Z,99092.25
2022-09-28T08:58:30.332Z,99105.13
2022-09-28T09:00:58.454Z,99100.66
2022-09-28T09:03:29.061Z,99102.78
2022-09-28T09:06:19.146Z,99104.88
2022-09-28T09:09:07.295Z,99098.88
2022-09-28T09:11:34.383Z,99103.78
2022-09-28T09:14:00.752Z,99106.03
2022-09-28T09:16:44.090Z,99107.38
2022-09-28T09:19:54.197Z,99096.31
2022-09-28T09:22:59.798Z,99102.69
2022-09-28T09:25:38.385Z,99105.03
2022-09-28T09:28:11.550Z,99100.91
2022-09-28T09:30:50.589Z,99101.16
2022-09-28T09:33:27.769Z,99102.34
2022-09-28T09:36:34.483Z,99102.59
2022-09-28T09:39:35.610Z,99101.50
2022-09-28T09:42:29.654Z,99104.44
2022-09-28T09:45:35.780Z,99111.53
2022-09-28T09:48:27.439Z,99106.75
2022-09-28T09:50:55.334Z,99116.91
2022-09-28T09:53:21.931Z,99110.63
2022-09-28T09:55:50.358Z,99109.94
2022-09-28T09:58:26.761Z,99109.84
2022-09-28T10:01:08.005Z,99112.69
2022-09-28T10:03:53.176Z,99111.13
2022-09-28T10:06:22.354Z,99108.41
2022-09-28T10:08:49.317Z,99105.53
2022-09-28T10:11:18.887Z,99109.22
2022-09-28T10:13:50.242Z,99104.97
2022-09-28T10:16:37.206Z,99108.59
2022-09-28T10:19:09.992Z,99108.53
2022-09-28T10:22:03.302Z,99102.78
2022-09-28T10:24:31.281Z,99112.75
2022-09-28T10:26:59.035Z,99112.72
2022-09-28T10:29:25.869Z,99112.09
2022-09-28T10:31:52.655Z,99118.59
2022-09-28T10:34:35.475Z,99114.28
2022-09-28T10:37:09.705Z,99109.94
2022-09-28T10:39:53.606Z,99114.47
2022-09-28T10:42:21.437Z,99113.09
2022-09-28T10:44:55.240Z,99111.72
2022-09-28T10:47:32.720Z,99125.41
2022-09-28T10:49:59.102Z,99126.13
2022-09-28T10:52:43.042Z,99114.66
2022-09-28T10:55:20.514Z,99123.31
2022-09-28T10:57:47.113Z,99123.31
2022-09-28T11:00:31.948Z,99125.47
2022-09-28T11:03:22.564Z,99120.56
2022-09-28T11:06:01.571Z,99123.50
2022-09-28T11:08:48.136Z,99127.16
2022-09-28T11:11:19.824Z,99122.19
2022-09-28T11:13:51.447Z,99123.66
2022-09-28T11:16:23.805Z,99123.66
2022-09-28T11:18:50.227Z,99122.97
2022-09-28T11:21:17.829Z,99123.00
2022-09-28T11:24:01.361Z,99130.16
2022-09-28T11:26:34.258Z,99131.66
2022-09-28T11:29:00.593Z,99132.41
2022-09-28T11:31:39.690Z,99124.53
2022-09-28T11:34:27.770Z,99127.66
2022-09-28T11:37:32.827Z,99130.44
2022-09-28T11:40:17.810Z,99131.81
2022-09-28T11:42:44.188Z,99127.53
2022-09-28T11:45:18.105Z,99131.16
2022-09-28T11:47:53.490Z,99125.41
2022-09-28T11:50:38.437Z,99133.34
2022-09-28T11:53:23.432Z,99129.75
2022-09-28T11:55:57.328Z,99134.75
2022-09-28T11:58:31.125Z,99134.78
2022-09-28T12:01:04.535Z,99134.03
2022-09-28T12:03:51.063Z,99131.25
2022-09-28T12:06:23.276Z,99132.72
2022-09-28T12:08:53.471Z,99144.94
2022-09-28T12:11:43.509Z,99145.66
2022-09-28T12:14:20.303Z,99135.63
2022-09-28T12:17:05.289Z,99138.53
2022-09-28T12:19:34.787Z,99128.50
2022-09-28T12:22:03.532Z,99141.53
2022-09-28T12:24:49.214Z,99132.16
2022-09-28T12:27:27.841Z,99131.50
2022-09-28T12:30:12.865Z,99131.50
2022-09-28T12:32:41.635Z,99125.75
2022-09-28T12:35:15.111Z,99130.03
2022-09-28T12:38:01.656Z,99130.03
2022-09-28T12:40:38.130Z,99129.41
2022-09-28T12:43:23.316Z,99130.13
2022-09-28T12:46:11.105Z,99125.81
2022-09-28T12:48:52.980Z,99127.28
2022-09-28T12:51:42.925Z,99125.81
2022-09-28T12:54:17.471Z,99122.97
2022-09-28T12:56:52.670Z,99125.91
2022-09-28T12:59:29.697Z,99125.91
2022-09-28T13:02:01.769Z,99127.31
2022-09-28T13:04:36.873Z,99128.78
2022-09-28T13:07:06.594Z,99125.19
2022-09-28T13:09:47.043Z,99125.19
2022-09-28T13:12:24.960Z,99120.16
2022-09-28T13:15:04.895Z,99133.13
2022-09-28T13:17:33.899Z,99126.63
2022-09-28T13:20:18.658Z,99130.25
2022-09-28T13:22:49.594Z,99121.63
2022-09-28T13:25:19.043Z,99128.81
2022-09-28T13:27:46.334Z,99127.41
2022-09-28T13:30:13.267Z,99130.97
2022-09-28T13:32:39.627Z,99133.16
2022-09-28T13:35:06.289Z,99130.28
2022-09-28T13:37:33.506Z,99129.56
2022-09-28T13:40:05.724Z,99140.41
2022-09-28T13:42:47.451Z,99141.06
2022-09-28T13:45:22.638Z,99131.78
2022-09-28T13:47:56.833Z,99136.03
2022-09-28T13:51:01.590Z,99138.19
2022-09-28T13:53:46.535Z,99137.53
2022-09-28T13:56:28.189Z,99143.28
2022-09-28T13:59:10.185Z,99149.69
2022-09-28T14:01:37.676Z,99149.03
2022-09-28T14:04:11.599Z,99151.91
2022-09-28T14:06:37.949Z,99148.25
2022-09-28T14:09:07.197Z,99154.72
2022-09-28T14:11:36.751Z,99160.47
2022-09-28T14:14:11.753Z,99161.91
2022-09-28T14:16:38.398Z,99163.34
2022-09-28T14:19:07.140Z,99155.44
2022-09-28T14:21:51.986Z,99161.19
2022-09-28T14:24:27.389Z,99173.41
2022-09-28T14:27:12.591Z,99181.31
2022-09-28T14:29:38.901Z,99179.16
2022-09-28T14:32:05.766Z,99171.25
2022-09-28T14:34:45.070Z,99176.28
2022-09-28T14:37:49.273Z,99185.63
2022-09-28T14:40:44.724Z,99182.03
2022-09-28T14:43:20.654Z,99187.03
2022-09-28T14:45:47.108Z,99190.59
2022-09-28T14:48:14.182Z,99187.03
2022-09-28T14:50:40.519Z,99192.06
2022-09-28T14:53:10.237Z,99200.69
2022-09-28T14:55:50.205Z,99197.81
2022-09-28T14:58:27.446Z,99204.28
2022-09-28T15:00:56.127Z,99189.91
2022-09-28T15:03:22.452Z,99200.69
2022-09-28T15:05:49.314Z,99194.94
2022-09-28T15:08:17.316Z,99197.06
2022-09-28T15:10:47.027Z,99202.81
2022-09-28T15:13:25.944Z,99202.81
2022-09-28T15:15:57.237Z,99205.66
2022-09-28T15:18:43.810Z,99206.38
2022-09-28T15:21:10.544Z,99209.25
2022-09-28T15:23:37.558Z,99206.38
2022-09-28T15:26:04.109Z,99211.41
2022-09-28T15:28:30.674Z,99212.03
2022-09-28T15:30:58.887Z,99210.03
2022-09-28T15:33:48.549Z,99213.66
2022-09-28T15:36:19.874Z,99221.50
2022-09-28T15:38:47.933Z,99217.97
2022-09-28T15:41:14.249Z,99215.84
2022-09-28T15:43:41.399Z,99220.88
2022-09-28T15:46:13.995Z,99225.25
2022-09-28T15:48:53.345Z,99218.78
2022-09-28T15:51:19.993Z,99223.84
2022-09-28T15:53:47.497Z,99231.00
2022-09-28T15:56:13.847Z,99233.19
2022-09-28T15:58:40.177Z,99232.47
2022-09-28T16:01:23.569Z,99231.03
2022-09-28T16:03:49.893Z,99234.63
2022-09-28T16:06:16.197Z,99233.91
2022-09-28T16:08:43.058Z,99236.84
2022-09-28T16:11:13.236Z,99238.25
2022-09-28T16:13:52.856Z,99245.47
2022-09-28T16:16:19.253Z,99251.22
2022-09-28T16:18:48.394Z,99256.97
2022-09-28T16:21:29.256Z,99254.09
2022-09-28T16:23:58.517Z,99255.53
2022-09-28T16:26:28.313Z,99251.22
2022-09-28T16:28:54.621Z,99265.59
2022-09-28T16:31:29.157Z,99266.31
2022-09-28T16:34:14.485Z,99261.28
2022-09-28T16:36:43.408Z,99268.50
2022-09-28T16:39:11.633Z,99265.59
2022-09-28T16:41:39.913Z,99262.72
2022-09-28T16:44:09.198Z,99269.88
2022-09-28T16:46:37.326Z,99281.38
2022-09-28T16:49:05.698Z,99277.81
2022-09-28T16:51:32.522Z,99275.78
2022-09-28T16:54:37.782Z,99275.88
2022-09-28T16:57:04.541Z,99273.69
2022-09-28T16:59:30.911Z,99275.78
2022-09-28T17:01:57.386Z,99278.66
2022-09-28T17:04:24.136Z,99279.22
2022-09-28T17:06:51.021Z,99283.50
2022-09-28T17:09:17.537Z,99282.78
2022-09-28T17:11:44.505Z,99290.84
2022-09-28T17:14:11.667Z,99294.47
2022-09-28T17:19:26.780Z,99293.66
2022-09-28T17:21:53.201Z,99298.50
2022-09-28T17:24:19.589Z,99296.31
2022-09-28T17:26:46.455Z,99303.72
2022-09-28T17:29:14.368Z,99300.03
2022-09-28T17:31:41.546Z,99301.09
2022-09-28T17:34:07.907Z,99305.94
2022-09-28T17:36:34.209Z,99305.13
2022-09-28T17:39:00.635Z,99305.06
2022-09-28T17:41:26.961Z,99307.91
2022-09-28T17:43:53.269Z,99312.94
2022-09-28T17:46:40.462Z,99306.34
2022-09-28T17:49:07.271Z,99308.66
2022-09-28T17:51:34.727Z,99308.75
2022-09-28T17:54:01.168Z,99310.34
2022-09-28T17:56:31.884Z,99316.38
2022-09-28T17:59:00.002Z,99310.91
2022-09-28T18:01:30.064Z,99315.06
2022-09-28T18:03:57.302Z,99319.00
2022-09-28T18:06:23.742Z,99311.06
2022-09-28T18:08:50.133Z,99310.81
2022-09-28T18:11:17.351Z,99324.00
2022-09-28T18:13:45.883Z,99318.97
2022-09-28T18:16:12.886Z,99317.44
2022-09-28T18:18:39.881Z,99325.09
2022-09-28T18:21:06.706Z,99327.72
2022-09-28T18:23:36.867Z,99336.44
2022-09-28T18:26:03.257Z,99331.44
2022-09-28T18:28:29.638Z,99327.00
2022-09-28T18:30:56.007Z,99334.03
2022-09-28T18:33:22.413Z,99335.03
2022-09-28T18:35:54.887Z,99345.22
2022-09-28T18:38:21.271Z,99341.69
2022-09-28T18:40:48.275Z,99353.94
2022-09-28T18:43:14.882Z,99345.31
2022-09-28T18:45:41.213Z,99361.84
2022-09-28T18:48:07.698Z,99346.78
2022-09-28T18:50:35.122Z,99345.38
2022-09-28T18:53:11.872Z,99349.72
2022-09-28T18:55:39.791Z,99364.06
2022-09-28T18:58:06.938Z,99361.22
2022-09-28T19:00:33.379Z,99364.81
2022-09-28T19:03:01.926Z,99366.94
2022-09-28T19:05:28.354Z,99366.19
2022-09-28T19:07:55.055Z,99369.81
2022-09-28T19:10:21.362Z,99369.09
2022-09-28T19:12:47.864Z,99369.81
2022-09-28T19:15:14.433Z,99373.38
2022-09-28T19:17:40.750Z,99374.84
2022-09-28T19:20:07.146Z,99379.88
2022-09-28T19:22:33.493Z,99370.47
2022-09-28T19:24:59.812Z,99372.63
2022-09-28T19:27:26.131Z,99371.91
2022-09-28T19:29:52.459Z,99371.91
2022-09-28T19:32:18.812Z,99379.88
2022-09-28T19:34:45.149Z,99375.50
2022-09-28T19:37:11.510Z,99381.25
2022-09-28T19:39:37.814Z,99377.66
2022-09-28T19:42:04.186Z,99376.94
2022-09-28T19:44:30.891Z,99384.13
2022-09-28T19:46:58.059Z,99378.38
2022-09-28T19:49:24.668Z,99379.78
2022-09-28T19:52:11.557Z,99383.38
2022-09-28T19:54:38.677Z,99380.44
2022-09-28T19:57:08.568Z,99376.75
2022-09-28T19:59:36.426Z,99375.44
2022-09-28T20:02:03.344Z,99389.88
2022-09-28T20:04:29.939Z,99384.84
2022-09-28T20:06:56.283Z,99392.75
2022-09-28T20:09:22.598Z,99397.75
2022-09-28T20:11:48.918Z,99404.25
2022-09-28T20:14:16.058Z,99393.44
2022-09-28T20:16:42.381Z,99405.69
2022-09-28T20:19:08.705Z,99405.69
2022-09-28T20:21:35.075Z,99407.91
2022-09-28T20:24:01.715Z,99414.38
2022-09-28T20:26:28.069Z,99415.09
2022-09-28T20:28:54.381Z,99410.06
2022-09-28T20:31:21.683Z,99408.69
2022-09-28T20:33:48.081Z,99413.00
2022-09-28T20:36:18.038Z,99410.81
2022-09-28T20:38:44.850Z,99418.03
2022-09-28T20:41:11.253Z,99419.47
2022-09-28T20:43:37.823Z,99425.94
2022-09-28T20:46:04.659Z,99427.44
2022-09-28T20:48:31.045Z,99428.84
2022-09-28T20:51:04.344Z,99441.13
2022-09-28T20:53:31.022Z,99434.66
2022-09-28T20:55:58.038Z,99438.94
2022-09-28T20:58:24.361Z,99449.00
2022-09-28T21:00:50.665Z,99444.69
2022-09-28T21:03:17.970Z,99446.91
2022-09-28T21:05:44.289Z,99457.66
2022-09-28T21:08:10.602Z,99451.16
2022-09-28T21:10:36.979Z,99456.19
2022-09-28T21:13:03.350Z,99455.47
2022-09-28T21:15:29.720Z,99457.66
2022-09-28T21:17:56.086Z,99449.03
2022-09-28T21:20:22.410Z,99447.63
2022-09-28T21:22:48.729Z,99454.78
2022-09-28T21:25:15.063Z,99460.56
2022-09-28T21:27:41.438Z,99464.88
2022-09-28T21:30:09.154Z,99463.44
2022-09-28T21:32:35.529Z,99466.25
2022-09-28T21:35:01.842Z,99460.44
2022-09-28T21:37:28.166Z,99468.38
2022-09-28T21:39:54.480Z,99463.34
2022-09-28T21:42:20.805Z,99471.19
2022-09-28T21:44:47.135Z,99468.97
2022-09-28T21:47:13.479Z,99477.63
2022-09-28T21:49:39.786Z,99479.88
2022-09-28T21:52:06.100Z,99479.13
2022-09-28T21:54:33.596Z,99479.13
2022-09-28T21:57:01.327Z,99487.03
2022-09-28T21:59:27.633Z,99486.28
2022-09-28T22:01:54.013Z,99487.69
2022-09-28T22:04:20.520Z,99484.81
2022-09-28T22:06:47.035Z,99486.97
2022-09-28T22:09:13.336Z,99493.44
2022-09-28T22:11:39.780Z,99497.03
2022-09-28T22:14:06.137Z,99487.63
2022-09-28T22:16:32.765Z,99486.19
2022-09-28T22:18:59.193Z,99486.88
2022-09-28T22:21:28.628Z,99491.19
2022-09-28T22:23:57.902Z,99491.91
2022-09-28T22:26:24.778Z,99489.72
2022-09-28T22:28:54.991Z,99486.03
2022-09-28T22:31:22.320Z,99492.56
2022-09-28T22:33:48.666Z,99496.09
2022-09-28T22:36:16.585Z,99494.66
2022-09-28T22:38:43.303Z,99493.19
2022-09-28T22:41:09.627Z,99500.41
2022-09-28T22:43:35.950Z,99491.72
2022-09-28T22:46:03.399Z,99497.47
2022-09-28T22:48:29.866Z,99494.59
2022-09-28T22:50:56.212Z,99495.28
2022-09-28T22:53:22.554Z,99485.91
2022-09-28T22:55:48.870Z,99491.69
2022-09-28T22:58:15.210Z,99493.06
2022-09-28T23:00:41.553Z,99502.41
2022-09-28T23:03:07.968Z,99495.91
2022-09-28T23:05:34.359Z,99504.53
2022-09-28T23:08:00.739Z,99500.16
2022-09-28T23:10:27.155Z,99502.31
2022-09-28T23:12:53.734Z,99497.25
2022-09-28T23:15:21.578Z,99496.53
2022-09-28T23:17:51.641Z,99505.88
2022-09-28T23:20:18.034Z,99507.28
2022-09-28T23:22:47.876Z,99508.75
2022-09-28T23:25:14.520Z,99501.53
2022-09-28T23:27:44.200Z,99505.16
2022-09-28T23:30:10.532Z,99500.06
2022-09-28T23:32:36.916Z,99507.28
2022-09-28T23:35:03.263Z,99491.44
2022-09-28T23:37:29.603Z,99498.63
2022-09-28T23:39:55.951Z,99502.16
2022-09-28T23:42:22.265Z,99498.63
2022-09-28T23:44:48.569Z,99503.63
2022-09-28T23:47:14.889Z,99502.16
2022-09-28T23:49:41.193Z,99500.72
2022-09-28T23:52:07.548Z,99494.97
2022-09-28T23:54:33.889Z,99502.13
2022-09-28T23:57:00.205Z,99505.72
2022-09-28T23:59:26.505Z,99503.53
